Gold Express — FMEQ — position and weather

sailwx.info

Track history (hours):
 
Tides and Currents Weather Stations Pressure Air Temp Water Temp Dewpoint Dewpoint Depression Visibility Wind Speed Wind Dir Waves Ship Positions

Gold Express

Last reported at 2018-Feb-22 22:02 UTC. Time now 2018-Feb-23 08:31 UTC.
Position N 16°14' W 061°33'.

Length 47 m; draft 2 m.

Type: High speed craft. MMSI: 329001200.

Date/timePositionNaut miles runAvg speedWind from/ knotsBaromVisibWave heightAir tempDewpointWater temp
2018-Feb-22 22:02N 16°14' W 061°33'0 0.0
2018-Feb-22 21:52N 16°14' W 061°33'0 0.0
2018-Feb-22 21:20N 16°14' W 061°33'6 0.7
2018-Feb-22 12:36N 16°10' W 061°29'430.8
2018-Feb-22 12:28N 16°12' W 061°31'2 0.1
2018-Feb-21 17:19N 16°14' W 061°32'0 0.7
2018-Feb-21 16:59N 16°14' W 061°33'0 0.1
2018-Feb-21 10:57N 16°14' W 061°32'3 0.1
2018-Feb-19 17:31N 16°12' W 061°31'313.9
2018-Feb-19 17:17N 16°14' W 061°33'3 0.1
2018-Feb-18 12:28N 16°12' W 061°31'2 0.1
2018-Feb-17 21:21N 16°14' W 061°32'1 0.2
2018-Feb-17 17:09N 16°14' W 061°33'0 0.0
2018-Feb-17 17:00N 16°14' W 061°33'0 0.0
2018-Feb-16 17:00N 16°14' W 061°33'0 0.0
2018-Feb-16 10:44N 16°14' W 061°33'0 0.0
2018-Feb-16 09:06N 16°14' W 061°33'0 0.0
2018-Feb-16 08:48N 16°14' W 061°33'0 0.0
2018-Feb-16 08:27N 16°14' W 061°33'0 0.0
2018-Feb-16 07:30N 16°14' W 061°33'0 0.0
2018-Feb-16 06:58N 16°14' W 061°33'0 0.0
2018-Feb-15 21:21N 16°14' W 061°33'  
Track history (hours):
 
Tides and Currents Weather Stations Pressure Air Temp Water Temp Dewpoint Dewpoint Depression Visibility Wind Speed Wind Dir Waves Ship Positions

Gold Express

Last reported at 2018-Feb-22 22:02 UTC. Time now 2018-Feb-23 08:31 UTC.
Position N 16°14' W 061°33'.

Length 47 m; draft 2 m.

Type: High speed craft. MMSI: 329001200.

Date/timePositionNaut miles runAvg speedWind from/ knotsBaromVisibWave heightAir tempDewpointWater temp
2018-Feb-22 22:02N 16°14' W 061°33'0 0.0
2018-Feb-22 21:52N 16°14' W 061°33'0 0.0
2018-Feb-22 21:20N 16°14' W 061°33'6 0.7
2018-Feb-22 12:36N 16°10' W 061°29'430.8
2018-Feb-22 12:28N 16°12' W 061°31'2 0.1
2018-Feb-21 17:19N 16°14' W 061°32'0 0.7
2018-Feb-21 16:59N 16°14' W 061°33'0 0.1
2018-Feb-21 10:57N 16°14' W 061°32'3 0.1
2018-Feb-19 17:31N 16°12' W 061°31'313.9
2018-Feb-19 17:17N 16°14' W 061°33'3 0.1
2018-Feb-18 12:28N 16°12' W 061°31'2 0.1
2018-Feb-17 21:21N 16°14' W 061°32'1 0.2
2018-Feb-17 17:09N 16°14' W 061°33'0 0.0
2018-Feb-17 17:00N 16°14' W 061°33'0 0.0
2018-Feb-16 17:00N 16°14' W 061°33'0 0.0
2018-Feb-16 10:44N 16°14' W 061°33'0 0.0
2018-Feb-16 09:06N 16°14' W 061°33'0 0.0
2018-Feb-16 08:48N 16°14' W 061°33'0 0.0
2018-Feb-16 08:27N 16°14' W 061°33'0 0.0
2018-Feb-16 07:30N 16°14' W 061°33'0 0.0
2018-Feb-16 06:58N 16°14' W 061°33'0 0.0
2018-Feb-15 21:21N 16°14' W 061°33'  

Dump ship's entire track history